Terminal Aerodrome Forecast
Issued by NWS

Current Version | Previous Version | Text Only | Print | Product List | Glossary On
Versions: 1 2 3 4 5 6 7 8 9 10 11 12 13 14 15 16 17 18 19 20 21 22 23 24 25 26 27 28 29 30 31 32
000
FTUS45 KSLC 271120
TAF36U
TAF
K36U 271120Z 2712/2812 13006KT P6SM VCSH OVC060
     FM271300 VRB04KT P6SM -SHRA BKN035 OVC050
     FM271600 21010KT 4SM -RA OVC020
     FM280000 04014G20KT 6SM -SHRA SCT020 BKN040=

USA.gov is the U.S. government's official web portal to all federal, state and local government web resources and services.